Aranspass, Texas
Current Conditions -  °F | °C
As of 8:15 AM on Saturday 20 Dec 2014 (Local Time) from KTFP Reporting Station
Overcast Overcast  
Wind Chill: 51°   Ceiling: 900
Heat Index: 51°   Visibility: 10mi
Dew Point: 47°   Wind: 13mph
Humidity: 86%   Direction: 360°N
Pressure: 30.19"   Gusts: NA
Location:  27.9399°N, 97.1805°W
Report Text: KTFP 201415Z AUTO 36011KT 10SM OVC009 11/08 A3019 RMK AO2 T01070084
Loading
Personal Weather Stations






























Interactive Weather Map New forecast layout! Learn more

10-Day Weather Forecast

Advertisements
Track Severe Weather on mobile